Flight Track Log - Related Links

Times and Time Zones

All times are in EDT time to prevent confusion due to time zone crossing. See the SWA407 flight status page for this flight to view local times or setup timezone preferences in your user account.

Time Position Orientation Groundspeed Altitude Reporting Facility
EDT Latitude Longitude Course Direction KTS km/h feet Rate Location/Type
Fri 19:13:51 42.9333 -78.7333 193° South 133 246 2.200  Level Buffalo TRACON
Fri 19:15:57 42.8253 -78.7686 193° South 212 393 7.300 2.516 Climbing Cleveland Center
Fri 19:16:57 42.7583 -78.7481 167° South 251 465 10.000 2.650 Climbing Cleveland Center
Fri 19:17:57 42.6706 -78.7308 172° South 284 526 12.600 3.250 Climbing Cleveland Center
Fri 19:18:57 42.5639 -78.7114 172° South 328 607 16.500 3.650 Climbing Cleveland Center
Fri 19:19:57 42.4678 -78.6917 171° South 348 644 19.900 3.350 Climbing Cleveland Center
Fri 19:20:57 42.3753 -78.6494 161° South 354 655 23.200 2.550 Climbing Cleveland Center
Fri 19:21:57 42.2967 -78.5619 141° Southeast 349 647 25.000 900 Climbing Cleveland Center
Fri 19:22:57 42.2158 -78.4692 140° Southeast 369 684 25.000  Level Cleveland Center
Fri 19:23:57 42.1411 -78.3878 141° Southeast 379 702 25.000  Level Cleveland Center
Fri 19:24:57 42.0622 -78.2925 138° Southeast 385 713 25.000  Level Cleveland Center
Fri 19:25:57 41.9772 -78.2175 147° Southeast 385 713 25.000  Level Cleveland Center
Fri 19:26:57 41.8861 -78.2458 193° South 318 589 25.000  Level Cleveland Center
Fri 19:27:57 41.7911 -78.2883 198° South 326 604 25.000  Level Cleveland Center
Fri 19:28:57 41.6981 -78.3278 198° South 345 639 25.000  Level Cleveland Center
Fri 19:29:57 41.6050 -78.3700 199° South 357 661 25.000  Level Cleveland Center
Fri 19:30:57 41.5119 -78.4092 197° South 357 661 25.000  Level Cleveland Center
Fri 19:31:57 41.4169 -78.4456 196° South 362 671 25.000  Level Cleveland Center
Fri 19:32:57 41.3164 -78.4239 171° South 348 644 25.000  Level Cleveland Center
Fri 19:33:57 41.2200 -78.4050 172° South 353 653 25.000 -200 Level Cleveland Center
Fri 19:34:57 41.1236 -78.3778 168° South 353 653 24.600 -700 Descending Cleveland Center
Fri 19:35:57 41.0336 -78.3506 167° South 353 653 23.600 -800 Descending Cleveland Center
Fri 19:36:57 40.9392 -78.3208 167° South 353 653 23.000 -300 Descending Cleveland Center
Fri 19:37:57 40.8425 -78.2886 166° South 353 653 23.000  Level Cleveland Center
Fri 19:38:57 40.7461 -78.2617 168° South 359 665 23.000  Level Cleveland Center
Fri 19:39:57 40.6517 -78.2322 167° South 353 653 23.000  Level Cleveland Center
Fri 19:40:57 40.5572 -78.2056 168° South 353 653 23.000  Level Cleveland Center
Fri 19:41:57 40.4628 -78.1733 165° South 353 653 23.000  Level Cleveland Center
Fri 19:42:57 40.3664 -78.1442 167° South 353 653 23.000  Level Cleveland Center
Fri 19:45:24 40.1361 -78.0769 167° South 328 607 23.000  Level Washington Center
Fri 19:46:25 40.0678 -78.0583 168° South 288 533 23.000  Level Washington Center
Fri 19:47:24 39.9972 -78.0342 165° South 268 496 23.000 -252 Level Washington Center
Fri 19:48:24 39.9144 -78.0097 167° South 276 512 22.500 -992 Descending Washington Center
Fri 19:49:25 39.8275 -77.9853 168° South 308 570 21.000 -1.636 Descending Washington Center
Fri 19:50:25 39.7406 -77.9581 166° South 320 592 19.200 -2.000 Descending Washington Center
Fri 19:51:25 39.6578 -77.9311 166° South 320 592 17.000 -1.850 Descending Washington Center
Fri 19:52:25 39.5769 -77.9017 164° South 310 575 15.500 -1.200 Descending Washington Center
Fri 19:53:25 39.5353 -77.7844 115° Southeast 304 563 14.600 -950 Descending Washington Center
Fri 19:54:25 39.5083 -77.6572 105° East 334 618 13.600 -1.300 Descending Washington Center
Fri 19:55:25 39.4792 -77.5328 107° East 345 639 12.000 -1.250 Descending Washington Center
Fri 19:56:25 39.4558 -77.4300 106° East 345 639 11.100 -1.011 Descending Washington Center
Fri 19:57:00 39.4500 -77.3500 95° East 316 586 10.400 -1.263 Descending Potomac TRACON
Fri 19:58:00 39.4667 -77.2333 79° East 308 570 9.100 -1.450 Descending Potomac TRACON
Fri 19:59:00 39.4833 -77.1333 78° East 303 562 7.500 -1.500 Descending Potomac TRACON
Fri 20:00:00 39.4833 -77.0333 90° East 300 555 6.100 -1.500 Descending Potomac TRACON
Fri 20:01:00 39.4167 -76.9667 142° Southeast 280 518 4.500 -1.050 Descending Potomac TRACON
Fri 20:02:00 39.3500 -76.9333 159° South 253 468 4.000 -250 Descending Potomac TRACON
Fri 20:03:00 39.3000 -76.9667 207° Southwest 188 348 4.000  Level Potomac TRACON
Fri 20:04:01 39.2667 -76.9833 201° Southwest 178 330 4.000 -545 Level Potomac TRACON
Fri 20:05:01 39.2167 -77.0167 207° Southwest 193 357 2.900 -750 Descending Potomac TRACON
Fri 20:06:01 39.2000 -76.9500 108° East 188 348 2.500 -200 Descending Potomac TRACON
Fri 20:07:01 39.1833 -76.8833 108° East 183 340 2.500 -464 Level Potomac TRACON
Fri 20:09:02 39.1833 -76.7500 90° East 151 280 1.100 -696 Descending Potomac TRACON
Fri 20:10:02 39.1833 -76.7000 90° East 135 249 400 -700 Descending Potomac TRACON
Fri 20:12:00 39.1667 -76.6667 95° East  Level FlightAware Approximate
Fri 20:19:00 39.1754 -76.6683 95° East  Level Estimated

Login

Don't have an account? Register now (free) for customized features, flight alerts, and more!